sensor_id;sensor_type;location;lat;lon;timestamp;temperature;humidity
69009;SHT31;56065;52.472;13.380;2023-02-01T00:01:10;5.37;84.25
69009;SHT31;56065;52.472;13.380;2023-02-01T00:03:35;5.51;84.00
69009;SHT31;56065;52.472;13.380;2023-02-01T00:06:00;5.61;84.01
69009;SHT31;56065;52.472;13.380;2023-02-01T00:08:26;5.58;83.43
69009;SHT31;56065;52.472;13.380;2023-02-01T00:11:05;5.59;83.08
69009;SHT31;56065;52.472;13.380;2023-02-01T00:13:33;5.62;82.38
69009;SHT31;56065;52.472;13.380;2023-02-01T00:16:07;5.59;82.38
69009;SHT31;56065;52.472;13.380;2023-02-01T00:18:34;5.59;82.21
69009;SHT31;56065;52.472;13.380;2023-02-01T00:20:59;5.68;81.92
69009;SHT31;56065;52.472;13.380;2023-02-01T00:23:25;5.65;82.29
69009;SHT31;56065;52.472;13.380;2023-02-01T00:25:50;5.62;81.82
69009;SHT31;56065;52.472;13.380;2023-02-01T00:28:16;5.58;81.91
69009;SHT31;56065;52.472;13.380;2023-02-01T00:30:41;5.51;81.81
69009;SHT31;56065;52.472;13.380;2023-02-01T00:33:06;5.63;81.73
69009;SHT31;56065;52.472;13.380;2023-02-01T00:35:34;5.61;81.46
69009;SHT31;56065;52.472;13.380;2023-02-01T00:37:59;5.52;81.70
69009;SHT31;56065;52.472;13.380;2023-02-01T00:40:25;5.62;81.97
69009;SHT31;56065;52.472;13.380;2023-02-01T00:42:51;5.51;81.72
69009;SHT31;56065;52.472;13.380;2023-02-01T00:45:17;5.44;82.08
69009;SHT31;56065;52.472;13.380;2023-02-01T00:47:42;5.42;82.23
69009;SHT31;56065;52.472;13.380;2023-02-01T00:50:08;5.38;82.45
69009;SHT31;56065;52.472;13.380;2023-02-01T00:52:34;5.28;82.63
69009;SHT31;56065;52.472;13.380;2023-02-01T00:54:59;5.27;82.91
69009;SHT31;56065;52.472;13.380;2023-02-01T00:57:24;5.32;82.96
69009;SHT31;56065;52.472;13.380;2023-02-01T00:59:50;5.30;83.10
69009;SHT31;56065;52.472;13.380;2023-02-01T01:02:15;5.26;83.41
69009;SHT31;56065;52.472;13.380;2023-02-01T01:04:40;5.17;83.56
69009;SHT31;56065;52.472;13.380;2023-02-01T01:07:06;5.11;83.66
69009;SHT31;56065;52.472;13.380;2023-02-01T01:09:31;5.14;83.86
69009;SHT31;56065;52.472;13.380;2023-02-01T01:11:56;5.06;83.93
69009;SHT31;56065;52.472;13.380;2023-02-01T01:14:22;5.11;83.99
69009;SHT31;56065;52.472;13.380;2023-02-01T01:16:47;5.01;83.95
69009;SHT31;56065;52.472;13.380;2023-02-01T01:19:12;4.93;84.09
69009;SHT31;56065;52.472;13.380;2023-02-01T01:21:38;4.93;84.22
69009;SHT31;56065;52.472;13.380;2023-02-01T01:24:03;5.00;84.14
69009;SHT31;56065;52.472;13.380;2023-02-01T01:26:29;4.97;83.95
69009;SHT31;56065;52.472;13.380;2023-02-01T01:28:56;5.00;84.04
69009;SHT31;56065;52.472;13.380;2023-02-01T01:31:21;5.01;83.82
69009;SHT31;56065;52.472;13.380;2023-02-01T01:33:52;5.16;83.55
69009;SHT31;56065;52.472;13.380;2023-02-01T01:36:18;5.10;83.54
69009;SHT31;56065;52.472;13.380;2023-02-01T01:38:43;5.14;83.23
69009;SHT31;56065;52.472;13.380;2023-02-01T01:41:16;5.10;83.33
69009;SHT31;56065;52.472;13.380;2023-02-01T01:44:04;5.24;83.26
69009;SHT31;56065;52.472;13.380;2023-02-01T01:46:33;5.11;82.96
69009;SHT31;56065;52.472;13.380;2023-02-01T01:51:33;5.17;82.96
69009;SHT31;56065;52.472;13.380;2023-02-01T01:54:06;5.18;82.45
69009;SHT31;56065;52.472;13.380;2023-02-01T01:56:34;5.17;82.60
69009;SHT31;56065;52.472;13.380;2023-02-01T01:59:01;5.28;82.50
69009;SHT31;56065;52.472;13.380;2023-02-01T02:01:27;5.23;82.29
69009;SHT31;56065;52.472;13.380;2023-02-01T02:03:53;5.20;82.40
69009;SHT31;56065;52.472;13.380;2023-02-01T02:06:48;5.31;82.20
69009;SHT31;56065;52.472;13.380;2023-02-01T02:09:16;5.32;81.96
69009;SHT31;56065;52.472;13.380;2023-02-01T02:11:41;5.30;82.00
69009;SHT31;56065;52.472;13.380;2023-02-01T02:14:09;5.27;82.02
69009;SHT31;56065;52.472;13.380;2023-02-01T02:16:48;5.23;81.85
69009;SHT31;56065;52.472;13.380;2023-02-01T02:22:53;5.28;81.81
69009;SHT31;56065;52.472;13.380;2023-02-01T02:25:28;5.35;82.04
69009;SHT31;56065;52.472;13.380;2023-02-01T02:42:07;5.34;82.07
69009;SHT31;56065;52.472;13.380;2023-02-01T02:50:46;5.34;82.03
69009;SHT31;56065;52.472;13.380;2023-02-01T02:53:39;5.32;82.12
69009;SHT31;56065;52.472;13.380;2023-02-01T02:56:30;5.42;82.01
69009;SHT31;56065;52.472;13.380;2023-02-01T02:59:16;5.39;81.83
69009;SHT31;56065;52.472;13.380;2023-02-01T03:02:03;5.44;82.08
69009;SHT31;56065;52.472;13.380;2023-02-01T03:04:52;5.47;82.00
69009;SHT31;56065;52.472;13.380;2023-02-01T03:10:16;5.38;81.91
69009;SHT31;56065;52.472;13.380;2023-02-01T03:12:43;5.37;81.98
69009;SHT31;56065;52.472;13.380;2023-02-01T03:15:26;5.48;81.78
69009;SHT31;56065;52.472;13.380;2023-02-01T03:17:55;5.52;81.76
69009;SHT31;56065;52.472;13.380;2023-02-01T03:20:22;5.54;81.49
69009;SHT31;56065;52.472;13.380;2023-02-01T03:22:48;5.59;81.51
69009;SHT31;56065;52.472;13.380;2023-02-01T03:25:21;5.56;81.40
69009;SHT31;56065;52.472;13.380;2023-02-01T03:27:52;5.54;81.53
69009;SHT31;56065;52.472;13.380;2023-02-01T03:30:23;5.58;81.45
69009;SHT31;56065;52.472;13.380;2023-02-01T03:32:55;5.55;81.33
69009;SHT31;56065;52.472;13.380;2023-02-01T03:40:37;5.61;81.36
69009;SHT31;56065;52.472;13.380;2023-02-01T03:43:06;5.62;81.21
69009;SHT31;56065;52.472;13.380;2023-02-01T03:45:43;5.54;81.17
69009;SHT31;56065;52.472;13.380;2023-02-01T03:48:12;5.59;81.31
69009;SHT31;56065;52.472;13.380;2023-02-01T03:50:44;5.65;81.16
69009;SHT31;56065;52.472;13.380;2023-02-01T03:53:15;5.70;80.98
69009;SHT31;56065;52.472;13.380;2023-02-01T03:55:41;5.55;81.20
69009;SHT31;56065;52.472;13.380;2023-02-01T04:00:32;5.62;81.05
69009;SHT31;56065;52.472;13.380;2023-02-01T04:02:58;5.70;80.93
69009;SHT31;56065;52.472;13.380;2023-02-01T04:05:24;5.68;80.77
69009;SHT31;56065;52.472;13.380;2023-02-01T04:07:49;5.76;80.95
69009;SHT31;56065;52.472;13.380;2023-02-01T04:10:15;5.78;80.66
69009;SHT31;56065;52.472;13.380;2023-02-01T04:12:40;5.79;81.07
69009;SHT31;56065;52.472;13.380;2023-02-01T04:15:06;5.90;80.78
69009;SHT31;56065;52.472;13.380;2023-02-01T04:17:32;6.02;80.69
69009;SHT31;56065;52.472;13.380;2023-02-01T04:19:57;5.96;80.42
69009;SHT31;56065;52.472;13.380;2023-02-01T04:22:23;6.07;80.52
69009;SHT31;56065;52.472;13.380;2023-02-01T04:24:48;6.00;80.04
69009;SHT31;56065;52.472;13.380;2023-02-01T04:27:13;6.06;80.14
69009;SHT31;56065;52.472;13.380;2023-02-01T04:29:39;5.96;80.37
69009;SHT31;56065;52.472;13.380;2023-02-01T04:32:05;5.98;80.40
69009;SHT31;56065;52.472;13.380;2023-02-01T04:34:30;5.93;80.52
69009;SHT31;56065;52.472;13.380;2023-02-01T04:36:56;5.85;80.40
69009;SHT31;56065;52.472;13.380;2023-02-01T04:39:21;5.93;80.56
69009;SHT31;56065;52.472;13.380;2023-02-01T04:41:46;5.95;80.63
69009;SHT31;56065;52.472;13.380;2023-02-01T04:44:17;6.00;80.42
69009;SHT31;56065;52.472;13.380;2023-02-01T04:49:10;6.16;80.22
69009;SHT31;56065;52.472;13.380;2023-02-01T04:51:36;6.19;79.82
69009;SHT31;56065;52.472;13.380;2023-02-01T04:54:01;6.24;79.84
69009;SHT31;56065;52.472;13.380;2023-02-01T04:56:27;6.30;79.80
69009;SHT31;56065;52.472;13.380;2023-02-01T04:58:52;6.21;79.87
69009;SHT31;56065;52.472;13.380;2023-02-01T05:01:18;6.26;79.95
69009;SHT31;56065;52.472;13.380;2023-02-01T05:03:43;6.31;79.86
69009;SHT31;56065;52.472;13.380;2023-02-01T05:06:08;6.33;79.61
69009;SHT31;56065;52.472;13.380;2023-02-01T05:08:34;6.31;79.86
69009;SHT31;56065;52.472;13.380;2023-02-01T05:10:59;6.24;79.66
69009;SHT31;56065;52.472;13.380;2023-02-01T05:13:27;6.11;79.97
69009;SHT31;56065;52.472;13.380;2023-02-01T05:16:11;6.11;80.09
69009;SHT31;56065;52.472;13.380;2023-02-01T05:18:37;6.10;80.05
69009;SHT31;56065;52.472;13.380;2023-02-01T05:21:02;6.16;79.91
69009;SHT31;56065;52.472;13.380;2023-02-01T05:23:28;6.24;79.83
69009;SHT31;56065;52.472;13.380;2023-02-01T05:25:58;6.14;79.81
69009;SHT31;56065;52.472;13.380;2023-02-01T05:28:24;6.10;79.80
69009;SHT31;56065;52.472;13.380;2023-02-01T05:30:50;6.14;80.05
69009;SHT31;56065;52.472;13.380;2023-02-01T05:33:15;6.26;79.80
69009;SHT31;56065;52.472;13.380;2023-02-01T05:35:40;6.11;79.98
69009;SHT31;56065;52.472;13.380;2023-02-01T05:38:06;6.20;79.85
69009;SHT31;56065;52.472;13.380;2023-02-01T05:40:31;6.17;80.11
69009;SHT31;56065;52.472;13.380;2023-02-01T05:42:56;6.17;79.73
69009;SHT31;56065;52.472;13.380;2023-02-01T05:45:22;6.13;80.06
69009;SHT31;56065;52.472;13.380;2023-02-01T05:47:47;6.27;79.81
69009;SHT31;56065;52.472;13.380;2023-02-01T05:50:12;6.41;79.70
69009;SHT31;56065;52.472;13.380;2023-02-01T05:52:38;6.29;79.29
69009;SHT31;56065;52.472;13.380;2023-02-01T05:55:03;6.40;79.56
69009;SHT31;56065;52.472;13.380;2023-02-01T05:57:29;6.27;79.60
69009;SHT31;56065;52.472;13.380;2023-02-01T05:59:55;6.29;79.88
69009;SHT31;56065;52.472;13.380;2023-02-01T06:02:20;6.31;79.64
69009;SHT31;56065;52.472;13.380;2023-02-01T06:04:46;6.40;79.56
69009;SHT31;56065;52.472;13.380;2023-02-01T06:07:12;6.27;79.58
69009;SHT31;56065;52.472;13.380;2023-02-01T06:09:37;6.33;80.06
69009;SHT31;56065;52.472;13.380;2023-02-01T06:12:03;6.21;80.66
69009;SHT31;56065;52.472;13.380;2023-02-01T06:14:29;6.00;81.17
69009;SHT31;56065;52.472;13.380;2023-02-01T06:16:54;5.93;82.06
69009;SHT31;56065;52.472;13.380;2023-02-01T06:19:21;6.07;81.73
69009;SHT31;56065;52.472;13.380;2023-02-01T06:21:46;6.13;81.97
69009;SHT31;56065;52.472;13.380;2023-02-01T06:24:12;6.14;82.41
69009;SHT31;56065;52.472;13.380;2023-02-01T06:26:38;6.02;82.62
69009;SHT31;56065;52.472;13.380;2023-02-01T06:29:04;6.03;82.73
69009;SHT31;56065;52.472;13.380;2023-02-01T06:31:31;5.98;82.69
69009;SHT31;56065;52.472;13.380;2023-02-01T06:33:57;6.14;82.68
69009;SHT31;56065;52.472;13.380;2023-02-01T06:36:22;6.10;82.17
69009;SHT31;56065;52.472;13.380;2023-02-01T06:38:48;6.26;82.22
69009;SHT31;56065;52.472;13.380;2023-02-01T06:41:14;6.17;81.99
69009;SHT31;56065;52.472;13.380;2023-02-01T06:43:39;6.02;82.26
69009;SHT31;56065;52.472;13.380;2023-02-01T06:46:07;5.85;82.80
69009;SHT31;56065;52.472;13.380;2023-02-01T06:48:33;5.98;82.46
69009;SHT31;56065;52.472;13.380;2023-02-01T06:50:59;6.03;82.67
69009;SHT31;56065;52.472;13.380;2023-02-01T06:53:24;5.93;82.80
69009;SHT31;56065;52.472;13.380;2023-02-01T06:56:01;5.80;82.25
69009;SHT31;56065;52.472;13.380;2023-02-01T06:58:31;5.78;82.27
69009;SHT31;56065;52.472;13.380;2023-02-01T07:00:57;5.86;82.08
69009;SHT31;56065;52.472;13.380;2023-02-01T07:03:23;5.95;81.54
69009;SHT31;56065;52.472;13.380;2023-02-01T07:05:49;5.89;81.65
69009;SHT31;56065;52.472;13.380;2023-02-01T07:08:14;5.88;81.39
69009;SHT31;56065;52.472;13.380;2023-02-01T07:10:40;6.00;81.18
69009;SHT31;56065;52.472;13.380;2023-02-01T07:13:05;5.89;81.41
69009;SHT31;56065;52.472;13.380;2023-02-01T07:15:30;5.86;81.56
69009;SHT31;56065;52.472;13.380;2023-02-01T07:17:56;5.80;81.94
69009;SHT31;56065;52.472;13.380;2023-02-01T07:20:22;5.86;82.09
69009;SHT31;56065;52.472;13.380;2023-02-01T07:22:48;5.82;82.15
69009;SHT31;56065;52.472;13.380;2023-02-01T07:25:13;5.72;82.12
69009;SHT31;56065;52.472;13.380;2023-02-01T07:27:38;5.79;82.63
69009;SHT31;56065;52.472;13.380;2023-02-01T07:30:05;5.93;82.79
69009;SHT31;56065;52.472;13.380;2023-02-01T07:32:31;6.03;82.62
69009;SHT31;56065;52.472;13.380;2023-02-01T07:34:57;6.07;82.35
69009;SHT31;56065;52.472;13.380;2023-02-01T07:37:23;6.03;81.91
69009;SHT31;56065;52.472;13.380;2023-02-01T07:39:50;6.05;82.59
69009;SHT31;56065;52.472;13.380;2023-02-01T07:42:15;6.05;82.38
69009;SHT31;56065;52.472;13.380;2023-02-01T07:44:40;6.00;83.33
69009;SHT31;56065;52.472;13.380;2023-02-01T07:47:06;5.93;84.13
69009;SHT31;56065;52.472;13.380;2023-02-01T07:49:31;5.80;85.48
69009;SHT31;56065;52.472;13.380;2023-02-01T07:51:56;5.51;86.03
69009;SHT31;56065;52.472;13.380;2023-02-01T07:54:22;5.44;86.75
69009;SHT31;56065;52.472;13.380;2023-02-01T07:56:47;5.48;87.71
69009;SHT31;56065;52.472;13.380;2023-02-01T07:59:12;5.45;87.57
69009;SHT31;56065;52.472;13.380;2023-02-01T08:01:38;5.47;88.15
69009;SHT31;56065;52.472;13.380;2023-02-01T08:04:03;5.47;88.18
69009;SHT31;56065;52.472;13.380;2023-02-01T08:06:32;5.34;88.46
69009;SHT31;56065;52.472;13.380;2023-02-01T08:08:59;5.24;88.59
69009;SHT31;56065;52.472;13.380;2023-02-01T08:11:25;5.42;88.56
69009;SHT31;56065;52.472;13.380;2023-02-01T08:13:51;5.37;88.92
69009;SHT31;56065;52.472;13.380;2023-02-01T08:16:18;5.24;88.87
69009;SHT31;56065;52.472;13.380;2023-02-01T08:18:44;4.98;88.92
69009;SHT31;56065;52.472;13.380;2023-02-01T08:21:16;5.18;89.16
69009;SHT31;56065;52.472;13.380;2023-02-01T08:23:42;4.98;88.93
69009;SHT31;56065;52.472;13.380;2023-02-01T08:28:54;5.03;89.73
69009;SHT31;56065;52.472;13.380;2023-02-01T08:31:21;5.17;89.42
69009;SHT31;56065;52.472;13.380;2023-02-01T08:33:50;5.26;89.08
69009;SHT31;56065;52.472;13.380;2023-02-01T08:36:15;5.34;89.18
69009;SHT31;56065;52.472;13.380;2023-02-01T08:38:40;5.35;89.00
69009;SHT31;56065;52.472;13.380;2023-02-01T08:41:11;5.27;88.96
69009;SHT31;56065;52.472;13.380;2023-02-01T08:43:37;5.16;89.45
69009;SHT31;56065;52.472;13.380;2023-02-01T08:46:03;5.21;89.52
69009;SHT31;56065;52.472;13.380;2023-02-01T08:48:29;5.34;89.39
69009;SHT31;56065;52.472;13.380;2023-02-01T08:50:54;5.39;89.24
69009;SHT31;56065;52.472;13.380;2023-02-01T08:53:20;5.47;89.23
69009;SHT31;56065;52.472;13.380;2023-02-01T08:55:46;5.55;88.99
69009;SHT31;56065;52.472;13.380;2023-02-01T08:58:12;5.62;88.43
69009;SHT31;56065;52.472;13.380;2023-02-01T09:00:39;5.68;88.55
69009;SHT31;56065;52.472;13.380;2023-02-01T09:03:04;5.52;88.27
69009;SHT31;56065;52.472;13.380;2023-02-01T09:05:29;5.59;88.36
69009;SHT31;56065;52.472;13.380;2023-02-01T09:07:55;5.63;88.36
69009;SHT31;56065;52.472;13.380;2023-02-01T09:10:20;5.58;87.89
69009;SHT31;56065;52.472;13.380;2023-02-01T09:12:45;5.61;87.92
69009;SHT31;56065;52.472;13.380;2023-02-01T09:15:11;5.69;87.79
69009;SHT31;56065;52.472;13.380;2023-02-01T09:17:36;5.59;88.18
69009;SHT31;56065;52.472;13.380;2023-02-01T09:20:03;5.66;88.10
69009;SHT31;56065;52.472;13.380;2023-02-01T09:22:28;5.76;88.12
69009;SHT31;56065;52.472;13.380;2023-02-01T09:24:54;5.93;87.64
69009;SHT31;56065;52.472;13.380;2023-02-01T09:27:19;5.98;87.57
69009;SHT31;56065;52.472;13.380;2023-02-01T09:29:45;5.86;87.59
69009;SHT31;56065;52.472;13.380;2023-02-01T09:32:14;5.80;88.09
69009;SHT31;56065;52.472;13.380;2023-02-01T09:34:40;5.90;87.52
69009;SHT31;56065;52.472;13.380;2023-02-01T09:37:05;6.02;87.21
69009;SHT31;56065;52.472;13.380;2023-02-01T09:39:30;6.06;87.03
69009;SHT31;56065;52.472;13.380;2023-02-01T09:46:59;6.09;85.92
69009;SHT31;56065;52.472;13.380;2023-02-01T09:49:33;6.23;85.73
69009;SHT31;56065;52.472;13.380;2023-02-01T09:52:02;6.65;86.54
69009;SHT31;56065;52.472;13.380;2023-02-01T09:54:58;7.03;90.44
69009;SHT31;56065;52.472;13.380;2023-02-01T09:57:43;6.84;85.98
69009;SHT31;56065;52.472;13.380;2023-02-01T10:00:23;6.96;86.74
69009;SHT31;56065;52.472;13.380;2023-02-01T10:02:50;7.09;85.91
69009;SHT31;56065;52.472;13.380;2023-02-01T10:05:22;7.32;86.55
69009;SHT31;56065;52.472;13.380;2023-02-01T10:08:05;7.19;84.75
69009;SHT31;56065;52.472;13.380;2023-02-01T10:10:44;7.36;85.96
69009;SHT31;56065;52.472;13.380;2023-02-01T10:13:17;7.27;83.47
69009;SHT31;56065;52.472;13.380;2023-02-01T10:15:52;6.92;84.56
69009;SHT31;56065;52.472;13.380;2023-02-01T10:26:20;6.54;85.02
69009;SHT31;56065;52.472;13.380;2023-02-01T10:28:55;6.58;85.06
69009;SHT31;56065;52.472;13.380;2023-02-01T10:31:25;6.64;84.88
69009;SHT31;56065;52.472;13.380;2023-02-01T10:33:56;6.68;84.83
69009;SHT31;56065;52.472;13.380;2023-02-01T10:36:31;6.95;84.59
69009;SHT31;56065;52.472;13.380;2023-02-01T10:38:58;7.12;84.23
69009;SHT31;56065;52.472;13.380;2023-02-01T10:41:30;7.16;83.66
69009;SHT31;56065;52.472;13.380;2023-02-01T10:43:58;7.08;83.65
69009;SHT31;56065;52.472;13.380;2023-02-01T10:46:24;6.84;84.66
69009;SHT31;56065;52.472;13.380;2023-02-01T10:48:53;6.60;84.68
69009;SHT31;56065;52.472;13.380;2023-02-01T10:54:33;6.55;85.26
69009;SHT31;56065;52.472;13.380;2023-02-01T10:56:58;6.55;85.35
69009;SHT31;56065;52.472;13.380;2023-02-01T10:59:25;6.60;85.41
69009;SHT31;56065;52.472;13.380;2023-02-01T11:02:00;6.64;85.56
69009;SHT31;56065;52.472;13.380;2023-02-01T11:04:32;6.31;86.33
69009;SHT31;56065;52.472;13.380;2023-02-01T11:09:37;6.38;86.03
69009;SHT31;56065;52.472;13.380;2023-02-01T11:12:04;6.55;85.94
69009;SHT31;56065;52.472;13.380;2023-02-01T11:14:37;6.75;85.58
69009;SHT31;56065;52.472;13.380;2023-02-01T11:19:45;6.98;85.02
69009;SHT31;56065;52.472;13.380;2023-02-01T11:22:11;6.92;84.75
69009;SHT31;56065;52.472;13.380;2023-02-01T11:24:38;6.87;84.33
69009;SHT31;56065;52.472;13.380;2023-02-01T11:27:16;7.22;84.29
69009;SHT31;56065;52.472;13.380;2023-02-01T11:29:44;7.33;83.75
69009;SHT31;56065;52.472;13.380;2023-02-01T11:32:12;7.60;82.89
69009;SHT31;56065;52.472;13.380;2023-02-01T11:34:53;8.28;81.94
69009;SHT31;56065;52.472;13.380;2023-02-01T11:37:23;8.83;80.59
69009;SHT31;56065;52.472;13.380;2023-02-01T11:39:54;9.21;79.11
69009;SHT31;56065;52.472;13.380;2023-02-01T11:42:21;9.45;78.40
69009;SHT31;56065;52.472;13.380;2023-02-01T11:44:47;10.07;77.17
69009;SHT31;56065;52.472;13.380;2023-02-01T11:48:00;9.59;75.73
69009;SHT31;56065;52.472;13.380;2023-02-01T11:50:19;9.41;76.66
69009;SHT31;56065;52.472;13.380;2023-02-01T11:59:08;9.03;77.35
69009;SHT31;56065;52.472;13.380;2023-02-01T12:02:08;8.84;78.81
69009;SHT31;56065;52.472;13.380;2023-02-01T12:04:48;8.67;78.69
69009;SHT31;56065;52.472;13.380;2023-02-01T12:07:23;8.80;77.93
69009;SHT31;56065;52.472;13.380;2023-02-01T12:24:01;8.79;76.92
69009;SHT31;56065;52.472;13.380;2023-02-01T12:26:44;8.64;77.65
69009;SHT31;56065;52.472;13.380;2023-02-01T12:29:30;8.22;78.02
69009;SHT31;56065;52.472;13.380;2023-02-01T12:35:10;7.92;79.17
69009;SHT31;56065;52.472;13.380;2023-02-01T12:37:47;8.11;79.15
69009;SHT31;56065;52.472;13.380;2023-02-01T12:43:04;7.97;78.83
69009;SHT31;56065;52.472;13.380;2023-02-01T12:50:50;8.05;78.96
69009;SHT31;56065;52.472;13.380;2023-02-01T12:55:49;8.12;78.08
69009;SHT31;56065;52.472;13.380;2023-02-01T13:00:49;7.81;78.84
69009;SHT31;56065;52.472;13.380;2023-02-01T13:03:24;8.02;78.26
69009;SHT31;56065;52.472;13.380;2023-02-01T13:08:36;7.78;78.45
69009;SHT31;56065;52.472;13.380;2023-02-01T13:11:08;7.63;78.49
69009;SHT31;56065;52.472;13.380;2023-02-01T13:19:00;7.94;78.09
69009;SHT31;56065;52.472;13.380;2023-02-01T13:21:31;7.84;77.87
69009;SHT31;56065;52.472;13.380;2023-02-01T13:23:58;7.87;78.16
69009;SHT31;56065;52.472;13.380;2023-02-01T13:26:23;8.09;77.63
69009;SHT31;56065;52.472;13.380;2023-02-01T13:28:51;7.91;77.71
69009;SHT31;56065;52.472;13.380;2023-02-01T13:40:05;8.04;77.90
69009;SHT31;56065;52.472;13.380;2023-02-01T13:42:59;8.04;77.69
69009;SHT31;56065;52.472;13.380;2023-02-01T13:45:30;7.97;77.16
69009;SHT31;56065;52.472;13.380;2023-02-01T13:47:59;7.97;77.63
69009;SHT31;56065;52.472;13.380;2023-02-01T13:50:32;8.16;77.67
69009;SHT31;56065;52.472;13.380;2023-02-01T13:55:59;8.04;77.59
69009;SHT31;56065;52.472;13.380;2023-02-01T13:58:34;7.98;77.83
69009;SHT31;56065;52.472;13.380;2023-02-01T14:03:58;7.75;78.26
69009;SHT31;56065;52.472;13.380;2023-02-01T14:17:29;7.36;82.35
69009;SHT31;56065;52.472;13.380;2023-02-01T14:19:27;7.32;82.85
69009;SHT31;56065;52.472;13.380;2023-02-01T14:21:55;7.13;82.97
69009;SHT31;56065;52.472;13.380;2023-02-01T14:24:29;7.01;82.41
69009;SHT31;56065;52.472;13.380;2023-02-01T14:26:58;6.98;83.44
69009;SHT31;56065;52.472;13.380;2023-02-01T14:29:36;7.08;82.69
69009;SHT31;56065;52.472;13.380;2023-02-01T14:32:18;7.13;82.38
69009;SHT31;56065;52.472;13.380;2023-02-01T14:50:44;7.03;81.13
69009;SHT31;56065;52.472;13.380;2023-02-01T15:00:54;7.23;79.59
69009;SHT31;56065;52.472;13.380;2023-02-01T15:06:04;7.20;78.95
69009;SHT31;56065;52.472;13.380;2023-02-01T15:08:34;6.89;79.35
69009;SHT31;56065;52.472;13.380;2023-02-01T15:11:04;6.50;80.99
69009;SHT31;56065;52.472;13.380;2023-02-01T15:13:31;6.42;82.69
69009;SHT31;56065;52.472;13.380;2023-02-01T15:16:13;6.31;83.75
69009;SHT31;56065;52.472;13.380;2023-02-01T15:18:41;6.24;84.43
69009;SHT31;56065;52.472;13.380;2023-02-01T15:21:23;6.20;84.60
69009;SHT31;56065;52.472;13.380;2023-02-01T15:23:50;6.09;85.58
69009;SHT31;56065;52.472;13.380;2023-02-01T15:26:27;6.14;86.32
69009;SHT31;56065;52.472;13.380;2023-02-01T15:28:53;6.13;86.04
69009;SHT31;56065;52.472;13.380;2023-02-01T15:31:31;5.69;86.26
69009;SHT31;56065;52.472;13.380;2023-02-01T15:33:58;5.62;87.82
69009;SHT31;56065;52.472;13.380;2023-02-01T15:36:23;5.73;87.77
69009;SHT31;56065;52.472;13.380;2023-02-01T15:39:14;5.85;87.49
69009;SHT31;56065;52.472;13.380;2023-02-01T15:41:46;5.72;87.41
69009;SHT31;56065;52.472;13.380;2023-02-01T15:47:16;5.45;87.80
69009;SHT31;56065;52.472;13.380;2023-02-01T15:49:43;5.47;87.41
69009;SHT31;56065;52.472;13.380;2023-02-01T15:54:56;5.58;87.52
69009;SHT31;56065;52.472;13.380;2023-02-01T15:57:25;5.62;87.35
69009;SHT31;56065;52.472;13.380;2023-02-01T15:59:57;5.61;87.17
69009;SHT31;56065;52.472;13.380;2023-02-01T16:02:32;5.63;87.24
69009;SHT31;56065;52.472;13.380;2023-02-01T16:04:58;5.66;87.45
69009;SHT31;56065;52.472;13.380;2023-02-01T16:07:29;5.56;87.04
69009;SHT31;56065;52.472;13.380;2023-02-01T16:09:57;5.54;86.86
69009;SHT31;56065;52.472;13.380;2023-02-01T16:12:28;5.44;86.58
69009;SHT31;56065;52.472;13.380;2023-02-01T16:14:55;5.35;85.75
69009;SHT31;56065;52.472;13.380;2023-02-01T16:17:20;5.28;86.04
69009;SHT31;56065;52.472;13.380;2023-02-01T16:19:52;5.08;86.03
69009;SHT31;56065;52.472;13.380;2023-02-01T16:22:22;4.90;86.18
69009;SHT31;56065;52.472;13.380;2023-02-01T16:24:47;4.79;86.30
69009;SHT31;56065;52.472;13.380;2023-02-01T16:27:13;4.72;86.69
69009;SHT31;56065;52.472;13.380;2023-02-01T16:29:38;4.59;87.03
69009;SHT31;56065;52.472;13.380;2023-02-01T16:32:04;4.63;87.03
69009;SHT31;56065;52.472;13.380;2023-02-01T16:34:30;4.65;87.45
69009;SHT31;56065;52.472;13.380;2023-02-01T16:36:55;4.66;87.21
69009;SHT31;56065;52.472;13.380;2023-02-01T16:39:23;4.62;87.84
69009;SHT31;56065;52.472;13.380;2023-02-01T16:41:49;4.66;87.68
69009;SHT31;56065;52.472;13.380;2023-02-01T16:44:17;4.62;87.30
69009;SHT31;56065;52.472;13.380;2023-02-01T16:46:47;4.70;87.41
69009;SHT31;56065;52.472;13.380;2023-02-01T16:49:21;4.73;87.57
69009;SHT31;56065;52.472;13.380;2023-02-01T16:51:48;4.66;87.67
69009;SHT31;56065;52.472;13.380;2023-02-01T16:54:14;4.72;87.39
69009;SHT31;56065;52.472;13.380;2023-02-01T16:56:40;4.69;87.33
69009;SHT31;56065;52.472;13.380;2023-02-01T16:59:07;4.62;87.51
69009;SHT31;56065;52.472;13.380;2023-02-01T17:01:34;4.60;87.80
69009;SHT31;56065;52.472;13.380;2023-02-01T17:04:01;4.73;87.70
69009;SHT31;56065;52.472;13.380;2023-02-01T17:06:27;4.75;87.42
69009;SHT31;56065;52.472;13.380;2023-02-01T17:08:56;4.70;87.50
69009;SHT31;56065;52.472;13.380;2023-02-01T17:11:25;4.77;87.43
69009;SHT31;56065;52.472;13.380;2023-02-01T17:13:51;4.83;87.23
69009;SHT31;56065;52.472;13.380;2023-02-01T17:18:54;4.79;87.33
69009;SHT31;56065;52.472;13.380;2023-02-01T17:21:21;4.87;87.33
69009;SHT31;56065;52.472;13.380;2023-02-01T17:23:46;4.94;87.32
69009;SHT31;56065;52.472;13.380;2023-02-01T17:26:12;4.79;87.28
69009;SHT31;56065;52.472;13.380;2023-02-01T17:28:37;4.69;87.35
69009;SHT31;56065;52.472;13.380;2023-02-01T17:31:03;4.80;87.51
69009;SHT31;56065;52.472;13.380;2023-02-01T17:33:34;4.86;88.11
69009;SHT31;56065;52.472;13.380;2023-02-01T17:36:00;5.00;87.69
69009;SHT31;56065;52.472;13.380;2023-02-01T17:38:26;4.97;87.39
69009;SHT31;56065;52.472;13.380;2023-02-01T17:40:51;5.03;87.38
69009;SHT31;56065;52.472;13.380;2023-02-01T17:43:23;5.11;87.24
69009;SHT31;56065;52.472;13.380;2023-02-01T17:45:51;5.20;87.11
69009;SHT31;56065;52.472;13.380;2023-02-01T17:48:21;5.10;87.04
69009;SHT31;56065;52.472;13.380;2023-02-01T17:50:48;5.11;87.15
69009;SHT31;56065;52.472;13.380;2023-02-01T17:53:16;5.28;87.05
69009;SHT31;56065;52.472;13.380;2023-02-01T17:55:45;5.30;87.17
69009;SHT31;56065;52.472;13.380;2023-02-01T17:58:12;5.14;87.21
69009;SHT31;56065;52.472;13.380;2023-02-01T18:00:39;5.27;87.29
69009;SHT31;56065;52.472;13.380;2023-02-01T18:03:04;5.24;86.89
69009;SHT31;56065;52.472;13.380;2023-02-01T18:05:41;5.23;87.10
69009;SHT31;56065;52.472;13.380;2023-02-01T18:08:07;5.26;87.22
69009;SHT31;56065;52.472;13.380;2023-02-01T18:10:33;5.27;87.20
69009;SHT31;56065;52.472;13.380;2023-02-01T18:13:00;5.31;87.12
69009;SHT31;56065;52.472;13.380;2023-02-01T18:15:26;5.35;87.10
69009;SHT31;56065;52.472;13.380;2023-02-01T18:17:52;5.38;87.03
69009;SHT31;56065;52.472;13.380;2023-02-01T18:20:22;5.45;86.87
69009;SHT31;56065;52.472;13.380;2023-02-01T18:22:49;5.31;87.30
69009;SHT31;56065;52.472;13.380;2023-02-01T18:27:46;5.47;87.15
69009;SHT31;56065;52.472;13.380;2023-02-01T18:30:11;6.17;91.61